Time;durP1;ratioP1;P1;durP2;ratioP2;P2;SDS_P1;SDS_P2;PMS_P1;PMS_P2;Temp;Humidity;BMP_temperature;BMP_pressure;BME280_temperature;BME280_humidity;BME280_pressure;Samples;Min_cycle;Max_cycle;Signal;HPM_P1;HPM_P2
2022/06/02 00:02:41;;;;;;;24.02;21.55;;;7.70;99.90;;;;;;5031081;28;20128;-59
2022/06/02 00:05:23;;;;;;;22.48;20.17;;;7.70;99.90;;;;;;5048728;28;20067;-59
2022/06/02 00:08:08;;;;;;;24.95;21.52;;;7.50;99.90;;;;;;5034221;28;20401;-59
2022/06/02 00:10:39;;;;;;;28.17;22.98;;;7.60;99.90;;;;;;5030895;28;20331;-61
2022/06/02 00:13:25;;;;;;;25.98;23.17;;;7.60;99.90;;;;;;5031444;28;20053;-60
2022/06/02 00:15:57;;;;;;;24.40;21.83;;;7.70;99.90;;;;;;5033417;28;20328;-59
2022/06/02 00:18:40;;;;;;;26.73;23.58;;;7.40;99.90;;;;;;5017699;28;20044;-60
2022/06/02 00:21:36;;;;;;;26.98;23.52;;;7.50;99.90;;;;;;5030526;28;20069;-60
2022/06/02 00:24:12;;;;;;;26.88;21.75;;;7.50;99.90;;;;;;5032801;28;20069;-59
2022/06/02 00:26:45;;;;;;;25.77;23.05;;;7.50;99.90;;;;;;5032308;28;20045;-59
2022/06/02 00:29:59;;;;;;;26.73;24.02;;;7.40;99.90;;;;;;5049356;28;20088;-60
2022/06/02 00:32:47;;;;;;;27.58;22.80;;;7.50;99.90;;;;;;4979686;28;20523;-59
2022/06/02 00:35:21;;;;;;;25.52;22.77;;;7.60;99.90;;;;;;5033406;28;20040;-61
2022/06/02 00:38:13;;;;;;;25.15;22.55;;;7.50;99.90;;;;;;5047996;28;20041;-59
2022/06/02 00:40:39;;;;;;;27.90;22.95;;;7.40;99.90;;;;;;5038534;28;20088;-59
2022/06/02 00:43:34;;;;;;;24.42;21.98;;;7.40;99.90;;;;;;5018508;28;20053;-60
2022/06/02 00:46:22;;;;;;;24.83;22.23;;;7.40;99.90;;;;;;4977257;28;21361;-61
2022/06/02 00:48:55;;;;;;;28.60;23.65;;;7.40;99.90;;;;;;5036676;28;20064;-60
2022/06/02 00:51:45;;;;;;;24.85;22.25;;;7.50;99.90;;;;;;5039833;28;20064;-60
2022/06/02 00:57:35;;;;;;;25.33;22.65;;;7.30;99.90;;;;;;5036659;28;20052;-60
2022/06/02 01:00:21;;;;;;;25.38;22.70;;;7.20;99.90;;;;;;5035281;28;20492;-61
2022/06/02 01:03:05;;;;;;;26.35;23.30;;;7.40;99.90;;;;;;5023041;28;20072;-61
2022/06/02 01:05:58;;;;;;;26.40;23.55;;;7.30;99.90;;;;;;5016606;28;20132;-61
2022/06/02 01:08:42;;;;;;;26.23;23.38;;;7.30;99.90;;;;;;5026225;28;20045;-61
2022/06/02 01:11:30;;;;;;;;;;;7.30;99.90;;;;;;5034610;28;20141;-60
2022/06/02 01:14:10;;;;;;;23.85;21.35;;;7.30;99.90;;;;;;5051100;28;20307;-60
2022/06/02 01:17:15;;;;;;;26.50;23.70;;;7.00;99.90;;;;;;5034779;28;20120;-60
2022/06/02 01:20:03;;;;;;;;;;;7.00;99.90;;;;;;5008075;28;20061;-61
2022/06/02 01:22:42;;;;;;;24.55;21.92;;;7.00;99.90;;;;;;5038401;28;20403;-61
2022/06/02 01:25:54;;;;;;;25.25;21.33;;;7.10;99.90;;;;;;5034686;28;20056;-60
2022/06/02 01:28:49;;;;;;;24.05;21.55;;;7.00;99.90;;;;;;5035586;28;20040;-60
2022/06/02 01:31:21;;;;;;;24.33;21.83;;;7.00;99.90;;;;;;5036011;28;20694;-61
2022/06/02 01:33:47;;;;;;;25.53;22.10;;;7.00;99.90;;;;;;5040711;28;20037;-60
2022/06/02 01:36:42;;;;;;;24.83;22.08;;;7.20;99.90;;;;;;5033028;28;20052;-61
2022/06/02 01:39:08;;;;;;;24.60;21.83;;;7.20;99.90;;;;;;5034891;28;20480;-60
2022/06/02 01:41:45;;;;;;;24.60;21.88;;;7.10;99.90;;;;;;5036924;28;20120;-60
2022/06/02 01:44:25;;;;;;;23.70;20.88;;;7.00;99.90;;;;;;5037514;28;20072;-61
2022/06/02 01:47:07;;;;;;;25.77;20.17;;;7.00;99.90;;;;;;5033292;28;20042;-61
2022/06/02 01:49:33;;;;;;;23.25;20.90;;;7.00;99.90;;;;;;5035203;28;20060;-61
2022/06/02 01:52:07;;;;;;;22.33;19.90;;;7.20;99.90;;;;;;5029694;28;20041;-61
2022/06/02 01:54:57;;;;;;;21.45;18.98;;;7.00;99.90;;;;;;5039613;28;20056;-60
2022/06/02 01:57:43;;;;;;;21.77;19.48;;;6.90;99.90;;;;;;5034595;28;20041;-60
2022/06/02 02:00:15;;;;;;;22.50;20.27;;;7.10;99.90;;;;;;5025303;28;20061;-60
2022/06/02 02:03:19;;;;;;;22.80;20.40;;;7.00;99.90;;;;;;5034990;28;20041;-61
2022/06/02 02:06:06;;;;;;;22.40;20.00;;;6.90;99.90;;;;;;5034554;28;20479;-60
2022/06/02 02:09:13;;;;;;;24.08;21.42;;;6.80;99.90;;;;;;5036991;28;20041;-60
2022/06/02 02:11:56;;;;;;;25.38;21.10;;;6.80;99.90;;;;;;5037205;28;20099;-60
2022/06/02 02:14:27;;;;;;;23.55;20.98;;;6.80;99.90;;;;;;5032698;28;20115;-60
2022/06/02 02:17:14;;;;;;;22.80;20.50;;;6.70;99.90;;;;;;5035093;28;20120;-61
2022/06/02 02:19:52;;;;;;;26.50;20.42;;;6.80;99.90;;;;;;5037942;28;20044;-60
2022/06/02 02:22:39;;;;;;;23.40;20.83;;;6.60;99.90;;;;;;5036818;28;20049;-60
2022/06/02 02:25:37;;;;;;;23.38;20.92;;;6.80;99.90;;;;;;5032199;28;20048;-60
2022/06/02 02:28:58;;;;;;;23.25;20.20;;;6.90;99.90;;;;;;5045441;28;20098;-60
2022/06/02 02:31:36;;;;;;;24.10;20.17;;;6.70;99.90;;;;;;4976347;28;20046;-62
2022/06/02 02:34:18;;;;;;;27.58;22.52;;;6.80;99.90;;;;;;5025528;28;20140;-60
2022/06/02 02:37:03;;;;;;;23.27;20.70;;;6.80;99.90;;;;;;5035803;28;20072;-60
2022/06/02 02:39:40;;;;;;;23.67;21.08;;;6.80;99.90;;;;;;5034025;28;20101;-60
2022/06/02 02:42:26;;;;;;;25.60;22.38;;;7.00;99.90;;;;;;5034909;28;20037;-60
2022/06/02 02:45:25;;;;;;;24.65;22.13;;;6.90;99.90;;;;;;5021559;28;20148;-61
2022/06/02 02:48:10;;;;;;;24.13;21.52;;;6.90;99.90;;;;;;5032929;28;20063;-60
2022/06/02 02:50:44;;;;;;;25.80;22.75;;;6.90;99.90;;;;;;5033157;28;20501;-61
2022/06/02 02:53:35;;;;;;;25.75;22.88;;;6.80;99.90;;;;;;5034560;28;20577;-61
2022/06/02 02:56:37;;;;;;;25.63;22.83;;;6.80;99.90;;;;;;5033113;28;20045;-60
2022/06/02 02:59:17;;;;;;;26.98;22.00;;;7.10;99.90;;;;;;5013102;28;20072;-61
2022/06/02 03:02:00;;;;;;;25.50;22.80;;;6.90;99.90;;;;;;5030534;28;20055;-61
2022/06/02 03:04:39;;;;;;;30.90;23.23;;;6.80;99.90;;;;;;5031978;28;20490;-61
2022/06/02 03:07:05;;;;;;;26.92;22.77;;;7.00;99.90;;;;;;5035818;28;20049;-60
2022/06/02 03:09:39;;;;;;;27.95;21.77;;;7.00;99.90;;;;;;5050176;28;20054;-60
2022/06/02 03:12:14;;;;;;;23.13;20.75;;;7.00;99.90;;;;;;5036976;28;20049;-61
2022/06/02 03:14:58;;;;;;;24.65;21.98;;;7.00;99.90;;;;;;5037028;28;20041;-60
2022/06/02 03:17:43;;;;;;;27.50;22.95;;;6.90;99.90;;;;;;5031012;28;20133;-61
2022/06/02 03:20:46;;;;;;;24.90;22.40;;;6.80;99.90;;;;;;5013889;28;20396;-60
2022/06/02 03:23:51;;;;;;;24.45;21.88;;;6.70;99.90;;;;;;5036002;28;20407;-61
2022/06/02 03:26:32;;;;;;;23.20;20.80;;;6.70;99.90;;;;;;4983259;28;20041;-60
2022/06/02 03:29:34;;;;;;;24.00;21.10;;;6.70;99.90;;;;;;5032115;28;20048;-60
2022/06/02 03:32:35;;;;;;;23.83;21.27;;;6.80;99.90;;;;;;5031858;28;20099;-61
2022/06/02 03:35:07;;;;;;;23.10;20.55;;;7.00;99.90;;;;;;5032996;28;20487;-60
2022/06/02 03:37:42;;;;;;;23.05;20.50;;;6.90;99.90;;;;;;5036132;28;20041;-60
2022/06/02 03:40:31;;;;;;;21.63;19.48;;;6.70;99.90;;;;;;5025782;28;20055;-60
2022/06/02 03:43:18;;;;;;;23.20;20.60;;;6.90;99.90;;;;;;5037237;28;20214;-60
2022/06/02 03:46:15;;;;;;;21.10;19.00;;;7.00;99.90;;;;;;5038080;28;20048;-61
2022/06/02 03:48:47;;;;;;;21.95;19.17;;;6.80;99.90;;;;;;5010864;28;20068;-61
2022/06/02 03:51:37;;;;;;;21.02;18.83;;;6.90;99.90;;;;;;5034451;28;20041;-60
2022/06/02 03:54:16;;;;;;;19.80;17.88;;;6.80;99.90;;;;;;5013720;28;20056;-60
2022/06/02 03:57:09;;;;;;;22.52;18.80;;;7.00;99.90;;;;;;5031285;28;20095;-60
2022/06/02 03:59:59;;;;;;;21.55;19.20;;;7.00;99.90;;;;;;5033713;28;20384;-59
2022/06/02 04:02:33;;;;;;;19.58;17.02;;;7.10;99.90;;;;;;5037401;28;20384;-59
2022/06/02 04:05:22;;;;;;;18.95;15.48;;;7.30;99.90;;;;;;5034190;28;20476;-60
2022/06/02 04:08:02;;;;;;;17.90;16.02;;;7.60;99.90;;;;;;5048179;28;20128;-60
2022/06/02 04:10:49;;;;;;;16.00;14.50;;;7.80;99.90;;;;;;5041420;28;20049;-60
2022/06/02 04:13:40;;;;;;;14.32;12.43;;;7.90;99.90;;;;;;5036836;28;20758;-61
2022/06/02 04:16:30;;;;;;;15.20;12.68;;;7.90;99.90;;;;;;5038345;28;20506;-60
2022/06/02 04:22:30;;;;;;;12.68;11.35;;;8.20;99.90;;;;;;5040829;28;20174;-60
2022/06/02 04:24:59;;;;;;;11.68;10.50;;;8.50;99.90;;;;;;5040406;28;20034;-60
2022/06/02 04:27:52;;;;;;;13.13;11.20;;;8.70;99.90;;;;;;5036116;28;20044;-61
2022/06/02 04:30:33;;;;;;;10.20;9.07;;;8.90;99.90;;;;;;5038620;28;20071;-60
2022/06/02 04:33:21;;;;;;;9.18;8.35;;;9.00;99.90;;;;;;5036084;28;20507;-60
2022/06/02 04:36:25;;;;;;;9.50;8.45;;;9.10;99.90;;;;;;5045641;28;20039;-60
2022/06/02 04:39:09;;;;;;;7.78;7.18;;;9.20;99.90;;;;;;5038255;28;20049;-60
2022/06/02 04:41:42;;;;;;;8.25;7.45;;;9.30;99.90;;;;;;5037447;28;20080;-61
2022/06/02 04:44:13;;;;;;;7.30;6.60;;;9.40;99.90;;;;;;5046472;28;20053;-60
2022/06/02 04:47:00;;;;;;;7.38;6.50;;;9.60;99.90;;;;;;5040653;28;20037;-60
2022/06/02 04:49:26;;;;;;;8.45;7.00;;;9.60;99.90;;;;;;5039104;28;20527;-60
2022/06/02 04:52:17;;;;;;;8.23;6.13;;;9.50;99.90;;;;;;5042204;28;20208;-60
2022/06/02 04:55:00;;;;;;;5.80;5.20;;;9.40;99.90;;;;;;5039311;28;20033;-60
2022/06/02 04:57:56;;;;;;;;;;;9.40;99.90;;;;;;5038844;28;20053;-61
2022/06/02 05:00:21;;;;;;;6.22;5.03;;;9.40;99.90;;;;;;5026644;28;19929;-60
2022/06/02 05:03:13;;;;;;;7.18;6.50;;;9.40;99.90;;;;;;5046466;28;20040;-60
2022/06/02 05:06:13;;;;;;;7.35;5.40;;;9.40;99.90;;;;;;5032079;28;20050;-60
2022/06/02 05:08:48;;;;;;;6.28;5.68;;;9.60;99.90;;;;;;5004798;28;20038;-61
2022/06/02 05:11:38;;;;;;;8.23;6.28;;;9.50;99.90;;;;;;5031064;28;20053;-60
2022/06/02 05:14:25;;;;;;;6.57;5.97;;;9.70;99.90;;;;;;5037735;28;20400;-59
2022/06/02 05:17:29;;;;;;;8.48;6.25;;;9.70;99.90;;;;;;5034351;28;20605;-60
2022/06/02 05:20:20;;;;;;;6.13;5.45;;;9.80;99.90;;;;;;5026799;28;20516;-59
2022/06/02 05:23:20;;;;;;;6.25;5.68;;;9.80;99.90;;;;;;5037335;28;20514;-60
2022/06/02 05:26:07;;;;;;;6.45;5.20;;;10.00;99.90;;;;;;5030194;28;20045;-59
2022/06/02 05:29:11;;;;;;;4.85;4.45;;;10.40;99.90;;;;;;5056346;28;20063;-60
2022/06/02 05:31:42;;;;;;;7.22;5.07;;;10.90;99.90;;;;;;5030837;28;20143;-60
2022/06/02 05:34:26;;;;;;;5.40;4.25;;;11.30;99.90;;;;;;5054645;28;20459;-60
2022/06/02 05:37:17;;;;;;;4.35;3.55;;;11.70;99.90;;;;;;5042029;28;20037;-60
2022/06/02 05:40:06;;;;;;;4.85;3.40;;;12.00;99.90;;;;;;5035311;28;20132;-61
2022/06/02 05:42:44;;;;;;;4.45;3.40;;;12.20;99.90;;;;;;5028439;28;20041;-60
2022/06/02 05:45:24;;;;;;;3.83;3.25;;;12.30;99.90;;;;;;5036381;28;20065;-60
2022/06/02 05:48:29;;;;;;;5.32;3.30;;;12.40;99.90;;;;;;5033877;28;20099;-60
2022/06/02 05:51:01;;;;;;;3.53;2.95;;;12.50;99.90;;;;;;5041135;28;20427;-60
2022/06/02 05:54:13;;;;;;;3.40;2.75;;;12.70;99.90;;;;;;5039868;28;20045;-60
2022/06/02 05:57:00;;;;;;;3.95;2.60;;;12.80;99.90;;;;;;5003192;28;20072;-60
2022/06/02 05:59:40;;;;;;;5.15;2.13;;;13.10;99.90;;;;;;5016017;28;20037;-59
2022/06/02 06:02:52;;;;;;;4.22;1.73;;;13.10;99.90;;;;;;5036143;28;20036;-60
2022/06/02 06:05:29;;;;;;;3.55;1.77;;;13.20;99.90;;;;;;5034788;28;20044;-60
2022/06/02 06:08:25;;;;;;;5.53;1.73;;;13.40;99.90;;;;;;5036136;28;21329;-61
2022/06/02 06:11:13;;;;;;;1.83;1.10;;;13.40;99.90;;;;;;5034224;28;20504;-59
2022/06/02 06:14:36;;;;;;;2.00;0.80;;;13.40;99.90;;;;;;5030319;28;20054;-60
2022/06/02 06:17:23;;;;;;;2.47;1.10;;;13.50;99.90;;;;;;5016402;28;20132;-61
2022/06/02 06:20:13;;;;;;;4.63;1.15;;;13.60;99.90;;;;;;5032045;28;20052;-61
2022/06/02 06:22:38;;;;;;;2.90;1.05;;;13.70;99.90;;;;;;5034007;28;20037;-60
2022/06/02 06:25:20;;;;;;;4.55;1.50;;;13.80;99.90;;;;;;5036848;28;20045;-61
2022/06/02 06:28:23;;;;;;;2.78;0.70;;;14.00;99.90;;;;;;5049561;28;20166;-61
2022/06/02 06:31:29;;;;;;;2.45;0.90;;;13.90;99.90;;;;;;5031878;28;20057;-62
2022/06/02 06:34:26;;;;;;;5.15;0.82;;;13.90;99.90;;;;;;4972124;28;20053;-61
2022/06/02 06:37:28;;;;;;;2.63;0.60;;;14.10;99.90;;;;;;5033683;28;20049;-61
2022/06/02 06:40:28;;;;;;;5.00;1.17;;;14.20;99.90;;;;;;5002595;28;20081;-61
2022/06/02 06:43:03;;;;;;;3.05;0.90;;;14.40;99.90;;;;;;5036604;28;20040;-60
2022/06/02 06:45:58;;;;;;;2.92;0.90;;;14.40;99.90;;;;;;5051520;28;20111;-60
2022/06/02 06:48:31;;;;;;;4.45;0.75;;;14.70;99.90;;;;;;5028536;28;20128;-61
2022/06/02 06:51:17;;;;;;;5.18;1.08;;;15.00;99.90;;;;;;5031408;28;20034;-61
2022/06/02 06:54:01;;;;;;;3.25;0.70;;;15.00;99.90;;;;;;5033706;28;20046;-61
2022/06/02 06:56:33;;;;;;;3.00;0.77;;;14.80;99.90;;;;;;5015285;28;20138;-61
2022/06/02 06:59:32;;;;;;;4.07;0.77;;;15.10;99.90;;;;;;5032460;28;20051;-61
2022/06/02 07:02:01;;;;;;;2.90;0.60;;;15.10;99.90;;;;;;5005549;28;20068;-60
2022/06/02 07:04:56;;;;;;;3.53;0.45;;;15.20;99.90;;;;;;5044062;28;20093;-60
2022/06/02 07:07:46;;;;;;;3.42;0.50;;;15.10;99.90;;;;;;5048225;28;20045;-60
2022/06/02 07:10:30;;;;;;;2.72;0.38;;;14.70;99.90;;;;;;5003712;28;20064;-62
2022/06/02 07:13:10;;;;;;;2.50;0.43;;;14.50;99.90;;;;;;5052722;28;20107;-60
2022/06/02 07:15:50;;;;;;;2.60;0.40;;;14.70;99.90;;;;;;5035639;28;20041;-59
2022/06/02 07:18:29;;;;;;;4.03;0.30;;;14.80;99.90;;;;;;5034335;28;20076;-60
2022/06/02 07:21:10;;;;;;;1.73;0.30;;;14.80;99.90;;;;;;5038071;28;20036;-61
2022/06/02 07:23:55;;;;;;;3.78;0.50;;;14.80;99.90;;;;;;5040520;28;20036;-61
2022/06/02 07:26:44;;;;;;;2.05;0.30;;;14.80;99.90;;;;;;5033312;28;20055;-60
2022/06/02 07:29:29;;;;;;;2.90;0.40;;;14.90;99.90;;;;;;5033263;28;20049;-61
2022/06/02 07:32:19;;;;;;;3.53;0.40;;;14.60;99.90;;;;;;5036975;28;20053;-60
2022/06/02 07:34:45;;;;;;;3.08;0.30;;;14.80;99.90;;;;;;5036684;28;20037;-61
2022/06/02 07:37:38;;;;;;;4.88;0.73;;;14.70;99.90;;;;;;5035006;28;20037;-61
2022/06/02 07:40:04;;;;;;;2.15;0.32;;;15.00;99.90;;;;;;5032249;28;20041;-61
2022/06/02 07:43:04;;;;;;;3.28;0.40;;;15.00;99.90;;;;;;5036624;28;20045;-59
2022/06/02 07:45:59;;;;;;;3.15;0.40;;;15.00;99.90;;;;;;5054132;28;20047;-60
2022/06/02 07:48:24;;;;;;;1.55;0.30;;;15.20;99.90;;;;;;5029971;28;20045;-61
2022/06/02 07:51:22;;;;;;;2.00;0.40;;;14.90;99.90;;;;;;5033065;28;20537;-61
2022/06/02 07:53:56;;;;;;;2.75;0.40;;;14.70;99.90;;;;;;5036802;28;20061;-61
2022/06/02 07:56:38;;;;;;;1.90;0.50;;;14.80;99.90;;;;;;5040317;28;20041;-61
2022/06/02 07:59:26;;;;;;;3.67;0.50;;;14.90;99.90;;;;;;5033059;28;20077;-61
2022/06/02 08:01:52;;;;;;;2.53;0.40;;;14.80;99.90;;;;;;5031155;28;20048;-61
2022/06/02 08:04:40;;;;;;;2.40;0.40;;;14.90;99.90;;;;;;5036527;28;20041;-60
2022/06/02 08:07:42;;;;;;;2.40;0.60;;;15.00;99.90;;;;;;5035542;28;20144;-61
2022/06/02 08:10:11;;;;;;;3.05;0.60;;;14.70;99.90;;;;;;5028230;28;20053;-60
2022/06/02 08:12:56;;;;;;;1.67;0.20;;;15.20;99.90;;;;;;5032158;28;20049;-60
2022/06/02 08:15:34;;;;;;;4.57;0.50;;;15.70;99.90;;;;;;5035606;28;20049;-59
2022/06/02 08:18:38;;;;;;;3.25;0.30;;;15.90;99.90;;;;;;5034564;28;20053;-59
2022/06/02 08:21:17;;;;;;;2.17;0.35;;;15.90;99.90;;;;;;5033871;28;20051;-60
2022/06/02 08:24:04;;;;;;;2.42;0.50;;;15.60;99.90;;;;;;5035461;28;20514;-60
2022/06/02 08:26:39;;;;;;;1.77;0.40;;;15.50;99.90;;;;;;5038557;28;20328;-60
2022/06/02 08:29:17;;;;;;;3.75;0.47;;;15.30;99.90;;;;;;5047737;28;20048;-59
2022/06/02 08:31:46;;;;;;;2.65;0.45;;;15.10;99.90;;;;;;5033136;28;20383;-59
2022/06/02 08:34:40;;;;;;;2.28;0.32;;;15.30;99.90;;;;;;5037807;28;20048;-59
2022/06/02 08:37:24;;;;;;;2.88;0.30;;;15.20;99.90;;;;;;5034639;28;20048;-59
2022/06/02 08:40:18;;;;;;;3.08;0.35;;;15.40;99.90;;;;;;5033265;28;20041;-59
2022/06/02 08:43:08;;;;;;;3.55;0.60;;;15.60;99.90;;;;;;5033823;28;20060;-59
2022/06/02 08:45:53;;;;;;;2.72;0.40;;;16.20;99.90;;;;;;5032854;28;20095;-60
2022/06/02 08:48:28;;;;;;;3.05;0.30;;;16.30;99.90;;;;;;5038426;28;20037;-59
2022/06/02 08:51:22;;;;;;;3.20;0.30;;;16.20;99.90;;;;;;5044469;28;20041;-60
2022/06/02 08:53:52;;;;;;;2.58;0.30;;;16.20;99.90;;;;;;5018651;28;20041;-60
2022/06/02 08:56:52;;;;;;;4.63;0.40;;;16.20;99.90;;;;;;5036624;28;20389;-60
2022/06/02 08:59:29;;;;;;;1.75;0.40;;;16.00;99.90;;;;;;5022397;28;20053;-60
2022/06/02 09:02:04;;;;;;;2.15;0.30;;;15.80;99.90;;;;;;5038078;28;20059;-60
2022/06/02 09:04:36;;;;;;;2.80;0.32;;;16.00;99.90;;;;;;5043105;28;20041;-61
2022/06/02 09:07:04;;;;;;;5.55;0.30;;;15.80;99.90;;;;;;5041742;28;20755;-60
2022/06/02 09:09:46;;;;;;;2.35;0.30;;;15.70;99.90;;;;;;5040948;28;20041;-60
2022/06/02 09:12:50;;;;;;;1.92;0.47;;;15.60;99.90;;;;;;5036637;28;20075;-60
2022/06/02 09:15:15;;;;;;;2.42;0.30;;;15.70;99.90;;;;;;5033409;28;20126;-61
2022/06/02 09:18:03;;;;;;;4.50;0.50;;;15.70;99.90;;;;;;5040602;28;20495;-60
2022/06/02 09:21:06;;;;;;;2.95;0.30;;;15.70;99.90;;;;;;5040501;28;20483;-61
2022/06/02 09:23:46;;;;;;;4.00;0.40;;;16.00;99.90;;;;;;5039410;28;20033;-60
2022/06/02 09:26:40;;;;;;;4.25;0.30;;;16.40;99.90;;;;;;5019660;28;20126;-60
2022/06/02 09:29:22;;;;;;;2.75;0.30;;;16.90;99.90;;;;;;5036663;28;20115;-60
2022/06/02 09:32:13;;;;;;;1.85;0.30;;;16.50;99.90;;;;;;5037888;28;20032;-60
2022/06/02 09:34:57;;;;;;;2.55;0.28;;;16.60;99.90;;;;;;5042445;28;20041;-61
2022/06/02 09:37:38;;;;;;;3.35;0.30;;;16.80;99.90;;;;;;5030287;28;20025;-61
2022/06/02 09:40:25;;;;;;;2.00;0.30;;;16.70;99.90;;;;;;5039308;28;20064;-61
2022/06/02 09:43:01;;;;;;;3.03;0.20;;;17.10;99.90;;;;;;5041757;28;20460;-61
2022/06/02 09:45:38;;;;;;;1.75;0.22;;;17.30;99.90;;;;;;5033190;28;20084;-60
2022/06/02 09:48:21;;;;;;;2.88;0.40;;;17.20;99.90;;;;;;5035169;28;20479;-61
2022/06/02 09:50:57;;;;;;;1.90;0.30;;;17.40;99.90;;;;;;5038994;28;20068;-61
2022/06/02 09:53:44;;;;;;;1.45;0.20;;;17.90;99.90;;;;;;5049515;28;20030;-60
2022/06/02 09:56:47;;;;;;;1.73;0.25;;;17.60;99.90;;;;;;5037924;28;20124;-61
2022/06/02 09:59:17;;;;;;;2.92;0.30;;;17.70;99.90;;;;;;5036004;28;20048;-61
2022/06/02 10:02:20;;;;;;;3.25;0.20;;;18.50;99.90;;;;;;5034679;28;20436;-61
2022/06/02 10:05:13;;;;;;;1.27;0.20;;;19.10;99.90;;;;;;5043709;28;20090;-60
2022/06/02 10:08:03;;;;;;;1.17;0.20;;;18.20;99.90;;;;;;5036066;28;20041;-61
2022/06/02 10:10:41;;;;;;;2.40;0.30;;;17.70;99.90;;;;;;5038541;28;20515;-61
2022/06/02 10:13:40;;;;;;;3.00;0.28;;;17.80;99.90;;;;;;5038297;28;20048;-61
2022/06/02 10:16:49;;;;;;;1.65;0.20;;;17.80;99.90;;;;;;5017517;28;20037;-61
2022/06/02 10:19:45;;;;;;;3.35;0.30;;;17.90;99.90;;;;;;5029689;28;20057;-61
2022/06/02 10:22:30;;;;;;;2.58;0.30;;;18.00;99.90;;;;;;5021478;28;20060;-62
2022/06/02 10:25:39;;;;;;;2.65;0.20;;;17.10;99.90;;;;;;5040716;28;20045;-61
2022/06/02 10:28:15;;;;;;;3.45;0.30;;;17.70;99.90;;;;;;5029287;28;20104;-62
2022/06/02 10:30:52;;;;;;;2.08;0.20;;;18.20;99.90;;;;;;5037747;28;20044;-62
2022/06/02 10:33:47;;;;;;;2.85;0.30;;;18.50;99.90;;;;;;5039059;28;20124;-61
2022/06/02 10:36:28;;;;;;;2.05;0.25;;;18.80;99.90;;;;;;5041927;28;20140;-60
2022/06/02 10:39:31;;;;;;;1.98;0.30;;;19.10;99.90;;;;;;5038256;28;20091;-59
2022/06/02 10:42:18;;;;;;;1.90;0.28;;;18.70;99.90;;;;;;5038722;28;20127;-60
2022/06/02 10:45:05;;;;;;;0.90;0.20;;;18.20;99.90;;;;;;5038607;28;20045;-59
2022/06/02 10:48:09;;;;;;;2.63;0.30;;;18.50;99.90;;;;;;5041144;28;20045;-61
2022/06/02 10:51:12;;;;;;;1.92;0.57;;;19.20;99.90;;;;;;5041792;28;20049;-59
2022/06/02 10:54:08;;;;;;;1.40;0.38;;;20.30;99.90;;;;;;5039846;28;20049;-60
2022/06/02 10:56:34;;;;;;;3.55;0.30;;;19.80;99.90;;;;;;5041298;28;20061;-61
2022/06/02 10:59:03;;;;;;;3.17;0.30;;;18.20;99.90;;;;;;5043663;28;20539;-61
2022/06/02 11:01:41;;;;;;;3.00;0.20;;;18.90;99.90;;;;;;5038086;28;20039;-59
2022/06/02 11:04:26;;;;;;;0.93;0.20;;;19.30;99.90;;;;;;5034613;28;20042;-60
2022/06/02 11:07:16;;;;;;;4.13;0.30;;;19.40;99.90;;;;;;5027065;28;20038;-60
2022/06/02 11:10:24;;;;;;;1.55;0.20;;;18.90;99.90;;;;;;5036315;28;20196;-61
2022/06/02 11:12:51;;;;;;;1.85;0.30;;;19.00;99.90;;;;;;5037820;28;20072;-61
2022/06/02 11:15:43;;;;;;;2.08;0.30;;;18.60;99.90;;;;;;5038373;28;20083;-62
2022/06/02 11:18:26;;;;;;;2.70;0.30;;;18.80;99.90;;;;;;5034638;28;20446;-60
2022/06/02 11:21:21;;;;;;;1.60;0.28;;;18.70;99.90;;;;;;5035341;28;20048;-61
2022/06/02 11:24:10;;;;;;;1.35;0.35;;;18.70;99.90;;;;;;5016862;28;20033;-61
2022/06/02 11:27:06;;;;;;;2.70;0.30;;;19.00;99.90;;;;;;5032567;28;20033;-61
2022/06/02 11:29:45;;;;;;;4.00;0.30;;;19.10;99.90;;;;;;5036926;28;20041;-62
2022/06/02 11:32:29;;;;;;;2.63;0.30;;;19.00;99.90;;;;;;5038586;28;20048;-62
2022/06/02 11:35:35;;;;;;;1.45;0.22;;;18.80;99.90;;;;;;5014975;28;20042;-62
2022/06/02 11:38:29;;;;;;;2.00;0.40;;;17.90;99.90;;;;;;5036222;28;20419;-62
2022/06/02 11:41:01;;;;;;;1.98;0.40;;;18.60;99.90;;;;;;5033286;28;20158;-61
2022/06/02 11:43:45;;;;;;;2.03;0.30;;;19.20;99.90;;;;;;5046812;28;20561;-62
2022/06/02 11:46:45;;;;;;;1.10;0.20;;;20.10;99.90;;;;;;5035229;28;20047;-62
2022/06/02 11:49:37;;;;;;;2.28;0.32;;;19.60;99.20;;;;;;5034322;28;20535;-61
2022/06/02 11:52:21;;;;;;;1.70;0.30;;;19.80;99.90;;;;;;5033231;28;20051;-62
2022/06/02 11:55:22;;;;;;;2.20;0.30;;;20.20;94.00;;;;;;5035682;28;20049;-62
2022/06/02 11:58:06;;;;;;;2.28;0.40;;;20.20;93.90;;;;;;5002905;28;20155;-62
2022/06/02 12:01:17;;;;;;;1.13;0.20;;;20.40;94.80;;;;;;5033376;28;20051;-62
2022/06/02 12:04:11;;;;;;;1.95;0.30;;;20.40;98.50;;;;;;5029840;28;20061;-61
2022/06/02 12:07:03;;;;;;;1.40;0.30;;;20.70;98.20;;;;;;5031338;28;20577;-63
2022/06/02 12:09:42;;;;;;;2.28;0.30;;;21.30;94.00;;;;;;5035486;28;20067;-61
2022/06/02 12:12:28;;;;;;;4.88;0.57;;;21.40;90.20;;;;;;5035739;28;20048;-61
2022/06/02 12:15:18;;;;;;;3.50;0.50;;;21.10;91.30;;;;;;5035456;28;20368;-62
2022/06/02 12:17:59;;;;;;;3.47;0.30;;;21.30;91.10;;;;;;5024497;28;20049;-62
2022/06/02 12:21:03;;;;;;;1.05;0.20;;;20.90;90.00;;;;;;5031704;28;20045;-61
2022/06/02 12:23:53;;;;;;;1.38;0.25;;;20.20;92.80;;;;;;5029938;28;20407;-60
2022/06/02 12:26:38;;;;;;;3.00;0.20;;;21.30;90.80;;;;;;5016991;28;20037;-61
2022/06/02 12:29:37;;;;;;;1.75;0.20;;;21.10;87.00;;;;;;5034514;28;20451;-61
2022/06/02 12:32:39;;;;;;;2.45;0.30;;;19.60;91.10;;;;;;5040777;28;20044;-61
2022/06/02 12:35:36;;;;;;;2.45;0.40;;;19.60;93.20;;;;;;5052568;28;20419;-60
2022/06/02 12:38:20;;;;;;;3.20;0.30;;;20.20;93.10;;;;;;5058979;28;20037;-61
2022/06/02 12:41:01;;;;;;;1.73;0.30;;;20.50;92.10;;;;;;5038680;28;20041;-60
2022/06/02 12:43:45;;;;;;;2.08;0.20;;;19.90;94.70;;;;;;5034611;28;20103;-61
2022/06/02 12:46:48;;;;;;;2.75;0.30;;;20.50;90.90;;;;;;5039877;28;20041;-60
2022/06/02 12:49:29;;;;;;;1.63;0.30;;;20.10;94.00;;;;;;5035860;28;20082;-60
2022/06/02 12:52:17;;;;;;;2.08;0.32;;;20.10;91.60;;;;;;5040980;28;20495;-61
2022/06/02 12:55:03;;;;;;;1.75;0.20;;;20.40;91.10;;;;;;5037081;28;20046;-60
2022/06/02 12:57:54;;;;;;;1.27;0.22;;;20.00;92.90;;;;;;5040042;28;20049;-60
2022/06/02 13:00:58;;;;;;;2.35;0.20;;;20.00;93.90;;;;;;5036435;28;20499;-60
2022/06/02 13:03:48;;;;;;;1.80;0.20;;;19.40;92.00;;;;;;5035566;28;20049;-60
2022/06/02 13:06:39;;;;;;;1.33;0.20;;;19.70;93.10;;;;;;5035089;28;20053;-60
2022/06/02 13:09:40;;;;;;;1.40;0.20;;;19.90;91.40;;;;;;5045421;28;20041;-61
2022/06/02 13:12:31;;;;;;;1.42;0.35;;;20.20;88.20;;;;;;5017587;28;20045;-61
2022/06/02 13:15:34;;;;;;;2.05;0.28;;;20.90;81.60;;;;;;5035361;28;20376;-62
2022/06/02 13:18:06;;;;;;;2.88;0.30;;;20.50;90.40;;;;;;5040207;28;20048;-61
2022/06/02 13:20:59;;;;;;;2.20;0.27;;;20.20;90.90;;;;;;5030149;28;20045;-61
2022/06/02 13:24:02;;;;;;;2.45;0.30;;;20.60;90.70;;;;;;5036829;28;20323;-60
2022/06/02 13:26:52;;;;;;;1.48;0.20;;;21.30;85.30;;;;;;5039474;28;20070;-61
2022/06/02 13:29:33;;;;;;;1.52;0.20;;;20.60;83.60;;;;;;5039693;28;20041;-61
2022/06/02 13:32:35;;;;;;;2.15;0.20;;;21.30;81.60;;;;;;5035500;28;20082;-61
2022/06/02 13:35:16;;;;;;;2.58;0.30;;;20.40;77.80;;;;;;5042374;28;20478;-61
2022/06/02 13:38:06;;;;;;;3.00;0.20;;;20.60;79.30;;;;;;5052841;28;20530;-61
2022/06/02 13:41:04;;;;;;;1.17;0.20;;;21.00;78.30;;;;;;5044191;28;20037;-61
2022/06/02 13:44:20;;;;;;;3.40;0.20;;;21.20;77.10;;;;;;5037170;28;20038;-62
2022/06/02 13:47:10;;;;;;;2.33;0.50;;;22.10;70.40;;;;;;5021532;28;20057;-61
2022/06/02 13:50:04;;;;;;;1.60;0.20;;;22.50;73.60;;;;;;5039442;28;20111;-61
2022/06/02 13:52:55;;;;;;;0.98;0.20;;;22.20;69.00;;;;;;5015954;28;20046;-60
2022/06/02 13:59:00;;;;;;;1.88;0.20;;;22.10;61.90;;;;;;5036145;28;20255;-61
2022/06/02 14:01:47;;;;;;;2.88;0.30;;;21.90;64.60;;;;;;4996537;28;20046;-60
2022/06/02 14:04:31;;;;;;;1.88;0.20;;;21.70;65.70;;;;;;5023144;28;20341;-60
2022/06/02 14:07:33;;;;;;;3.05;0.30;;;21.70;68.00;;;;;;5040536;28;20143;-61
2022/06/02 14:10:31;;;;;;;1.73;0.20;;;21.90;70.90;;;;;;5032470;28;20462;-61
2022/06/02 14:13:12;;;;;;;1.02;0.10;;;21.80;64.50;;;;;;5005839;28;20114;-61
2022/06/02 14:16:09;;;;;;;0.60;0.10;;;22.70;62.40;;;;;;5053749;28;20041;-62
2022/06/02 14:18:35;;;;;;;2.03;0.40;;;21.70;64.10;;;;;;5036784;28;20347;-60
2022/06/02 14:21:14;;;;;;;2.35;0.20;;;22.40;64.70;;;;;;5056816;28;20400;-61
2022/06/02 14:24:00;;;;;;;1.30;0.20;;;22.90;60.90;;;;;;5039026;28;20107;-61
2022/06/02 14:26:46;;;;;;;2.63;0.30;;;22.20;60.00;;;;;;5030622;28;20040;-62
2022/06/02 14:29:40;;;;;;;2.63;0.20;;;22.60;61.50;;;;;;5042082;28;20479;-60
2022/06/02 14:32:31;;;;;;;1.95;0.20;;;23.50;60.90;;;;;;5051195;28;20041;-61
2022/06/02 14:35:25;;;;;;;3.17;0.25;;;22.90;59.70;;;;;;5033432;28;20131;-61
2022/06/02 14:38:00;;;;;;;1.98;0.30;;;21.50;65.00;;;;;;5054341;28;20092;-61